Time;durP1;ratioP1;P1;durP2;ratioP2;P2;SDS_P1;SDS_P2;PMS_P1;PMS_P2;Temp;Humidity;BMP_temperature;BMP_pressure;BME280_temperature;BME280_humidity;BME280_pressure;Samples;Min_cycle;Max_cycle;Signal;HPM_P1;HPM_P2
2022/05/31 00:01:00;;;;;;;25.23;21.15;;;;;;;;;;5075237;28;20020;-80
2022/05/31 00:03:26;;;;;;;29.58;21.58;;;;;;;;;;5103709;28;20028;-79
2022/05/31 00:05:52;;;;;;;30.08;21.73;;;;;;;;;;5075554;28;20051;-81
2022/05/31 00:08:18;;;;;;;28.63;21.65;;;;;;;;;;5076407;28;20028;-81
2022/05/31 00:10:44;;;;;;;27.45;20.95;;;;;;;;;;5088291;28;20108;-79
2022/05/31 00:13:10;;;;;;;26.00;20.70;;;;;;;;;;5106294;28;20028;-81
2022/05/31 00:15:37;;;;;;;27.63;21.25;;;;;;;;;;5074695;28;20489;-79
2022/05/31 00:18:03;;;;;;;28.35;21.23;;;;;;;;;;5065476;28;20040;-81
2022/05/31 00:20:32;;;;;;;25.20;20.63;;;;;;;;;;5076921;28;20016;-79
2022/05/31 00:22:58;;;;;;;26.08;22.17;;;;;;;;;;5072782;28;20079;-82
2022/05/31 00:25:26;;;;;;;24.13;21.20;;;;;;;;;;5074705;28;20059;-79
2022/05/31 00:27:53;;;;;;;26.42;22.05;;;;;;;;;;5090775;28;20598;-76
2022/05/31 00:30:19;;;;;;;26.92;20.90;;;;;;;;;;5093065;28;20482;-80
2022/05/31 00:32:47;;;;;;;24.33;19.30;;;;;;;;;;5097425;28;20099;-78
2022/05/31 00:35:21;;;;;;;23.92;20.10;;;;;;;;;;5095229;28;20054;-79
2022/05/31 00:37:47;;;;;;;24.17;19.73;;;;;;;;;;5091675;28;20028;-79
2022/05/31 00:40:19;;;;;;;25.63;18.98;;;;;;;;;;5091900;28;20028;-79
2022/05/31 00:42:50;;;;;;;24.90;18.60;;;;;;;;;;5085494;28;20153;-82
2022/05/31 00:45:17;;;;;;;22.60;18.42;;;;;;;;;;5086198;28;20024;-81
2022/05/31 00:47:43;;;;;;;21.70;19.02;;;;;;;;;;5093026;28;20021;-80
2022/05/31 00:50:21;;;;;;;23.98;17.60;;;;;;;;;;5070500;28;20035;-79
2022/05/31 00:52:48;;;;;;;20.42;16.45;;;;;;;;;;5074771;28;20044;-80
2022/05/31 00:55:26;;;;;;;20.95;16.90;;;;;;;;;;5094047;28;20035;-79
2022/05/31 00:57:58;;;;;;;22.13;17.08;;;;;;;;;;5073221;28;20079;-81
2022/05/31 01:00:25;;;;;;;18.98;16.13;;;;;;;;;;5062544;28;20377;-79
2022/05/31 01:02:51;;;;;;;20.73;16.10;;;;;;;;;;5092925;28;20020;-80
2022/05/31 01:05:18;;;;;;;19.85;16.30;;;;;;;;;;5088747;28;20026;-77
2022/05/31 01:07:44;;;;;;;22.92;16.10;;;;;;;;;;5088947;28;20077;-77
2022/05/31 01:10:11;;;;;;;24.67;16.95;;;;;;;;;;5103151;28;20034;-77
2022/05/31 01:12:39;;;;;;;21.95;17.13;;;;;;;;;;5075855;28;20470;-78
2022/05/31 01:15:06;;;;;;;22.42;15.57;;;;;;;;;;5094261;28;20079;-79
2022/05/31 01:17:32;;;;;;;22.45;17.13;;;;;;;;;;5093244;28;20466;-80
2022/05/31 01:20:03;;;;;;;21.13;16.48;;;;;;;;;;5093256;28;20023;-81
2022/05/31 01:22:52;;;;;;;21.08;16.58;;;;;;;;;;5084199;28;20029;-81
2022/05/31 01:25:18;;;;;;;22.35;16.02;;;;;;;;;;5042093;28;20045;-78
2022/05/31 01:27:50;;;;;;;24.05;16.05;;;;;;;;;;5037418;28;20073;-82
2022/05/31 01:30:19;;;;;;;21.55;16.45;;;;;;;;;;5015323;28;20042;-78
2022/05/31 01:33:00;;;;;;;24.25;17.08;;;;;;;;;;5035409;28;20029;-77
2022/05/31 01:35:29;;;;;;;22.17;15.98;;;;;;;;;;5033252;28;20426;-81
2022/05/31 01:37:58;;;;;;;23.25;16.27;;;;;;;;;;5047984;28;20075;-80
2022/05/31 01:40:35;;;;;;;25.38;17.77;;;;;;;;;;5050171;28;20025;-77
2022/05/31 01:43:01;;;;;;;27.73;18.92;;;;;;;;;;5047973;28;20407;-78
2022/05/31 01:45:34;;;;;;;28.92;19.27;;;;;;;;;;5048872;28;20033;-81
2022/05/31 01:48:02;;;;;;;31.75;20.92;;;;;;;;;;5032304;28;20041;-80
2022/05/31 01:50:28;;;;;;;32.50;20.73;;;;;;;;;;5035235;28;20033;-81
2022/05/31 01:52:54;;;;;;;29.63;20.02;;;;;;;;;;5051885;28;20494;-77
2022/05/31 01:55:21;;;;;;;33.22;20.55;;;;;;;;;;5034768;28;20033;-78
2022/05/31 01:57:49;;;;;;;33.35;23.58;;;;;;;;;;5032687;28;20101;-76
2022/05/31 02:00:16;;;;;;;34.90;23.25;;;;;;;;;;5051618;28;20175;-78
2022/05/31 02:02:47;;;;;;;35.78;25.13;;;;;;;;;;5038270;28;20039;-77
2022/05/31 02:05:13;;;;;;;40.75;26.75;;;;;;;;;;5051471;28;20032;-78
2022/05/31 02:07:39;;;;;;;38.80;25.63;;;;;;;;;;5075268;28;20053;-79
2022/05/31 02:10:05;;;;;;;37.03;25.08;;;;;;;;;;5075109;28;20048;-78
2022/05/31 02:12:32;;;;;;;33.13;22.73;;;;;;;;;;5053424;28;20025;-78
2022/05/31 02:14:58;;;;;;;33.22;22.55;;;;;;;;;;5061642;28;20478;-79
2022/05/31 02:17:24;;;;;;;49.17;29.05;;;;;;;;;;5087177;28;20032;-78
2022/05/31 02:19:50;;;;;;;50.42;31.30;;;;;;;;;;5081724;28;20035;-79
2022/05/31 02:22:19;;;;;;;57.33;32.95;;;;;;;;;;5087770;28;20140;-77
2022/05/31 02:24:45;;;;;;;57.75;33.03;;;;;;;;;;5079131;28;20479;-79
2022/05/31 02:27:14;;;;;;;53.55;32.28;;;;;;;;;;5055101;28;20029;-78
2022/05/31 02:29:43;;;;;;;59.78;35.47;;;;;;;;;;5041959;28;20032;-79
2022/05/31 02:32:10;;;;;;;61.75;34.05;;;;;;;;;;5075176;28;20017;-79
2022/05/31 02:34:38;;;;;;;55.92;31.95;;;;;;;;;;5075638;28;20029;-78
2022/05/31 02:37:04;;;;;;;61.97;33.88;;;;;;;;;;5081509;28;21306;-78
2022/05/31 02:39:30;;;;;;;57.38;31.40;;;;;;;;;;5067091;28;20024;-81
2022/05/31 02:41:57;;;;;;;58.72;31.00;;;;;;;;;;5093423;28;20024;-79
2022/05/31 02:44:23;;;;;;;57.50;31.23;;;;;;;;;;5081416;28;20068;-80
2022/05/31 02:46:49;;;;;;;59.35;31.65;;;;;;;;;;5084440;28;20068;-79
2022/05/31 02:49:16;;;;;;;63.75;33.92;;;;;;;;;;5078525;28;20032;-79
2022/05/31 02:51:43;;;;;;;66.05;32.97;;;;;;;;;;5085169;28;20474;-84
2022/05/31 02:54:10;;;;;;;68.10;32.40;;;;;;;;;;5095051;28;20031;-82
2022/05/31 02:56:36;;;;;;;70.03;34.88;;;;;;;;;;5072905;28;20027;-79
2022/05/31 02:59:03;;;;;;;72.28;34.17;;;;;;;;;;5055561;28;20064;-82
2022/05/31 03:01:31;;;;;;;76.68;38.15;;;;;;;;;;5077167;28;20016;-78
2022/05/31 03:03:57;;;;;;;73.85;36.03;;;;;;;;;;5088770;28;20025;-78
2022/05/31 03:06:24;;;;;;;78.75;37.53;;;;;;;;;;5079247;28;20027;-79
2022/05/31 03:08:52;;;;;;;83.82;38.75;;;;;;;;;;5057597;28;20054;-76
2022/05/31 03:11:21;;;;;;;77.57;38.47;;;;;;;;;;5082456;28;20148;-80
2022/05/31 03:13:50;;;;;;;79.32;37.95;;;;;;;;;;5075016;28;20046;-75
2022/05/31 03:16:16;;;;;;;89.72;39.17;;;;;;;;;;5094612;28;20042;-76
2022/05/31 03:18:44;;;;;;;94.43;41.30;;;;;;;;;;5098112;28;20474;-77
2022/05/31 03:21:14;;;;;;;77.53;39.45;;;;;;;;;;5091771;28;20020;-76
2022/05/31 03:23:44;;;;;;;84.10;40.00;;;;;;;;;;5082903;28;20058;-78
2022/05/31 03:26:12;;;;;;;88.72;41.33;;;;;;;;;;5094227;28;20017;-78
2022/05/31 03:28:38;;;;;;;84.85;40.13;;;;;;;;;;5094132;28;20024;-76
2022/05/31 03:31:05;;;;;;;81.22;41.33;;;;;;;;;;5092685;28;20032;-74
2022/05/31 03:33:32;;;;;;;84.07;41.80;;;;;;;;;;5091718;28;20051;-78
2022/05/31 03:35:58;;;;;;;78.65;38.45;;;;;;;;;;5103044;28;20067;-77
2022/05/31 03:38:24;;;;;;;73.43;39.20;;;;;;;;;;5112748;28;20031;-83
2022/05/31 03:40:56;;;;;;;75.60;40.53;;;;;;;;;;5114387;28;20108;-79
2022/05/31 03:43:27;;;;;;;72.60;39.97;;;;;;;;;;5097954;28;20029;-79
2022/05/31 03:45:53;;;;;;;82.82;42.40;;;;;;;;;;5074774;28;20390;-79
2022/05/31 03:48:19;;;;;;;80.28;39.35;;;;;;;;;;5093796;28;20032;-81
2022/05/31 03:50:45;;;;;;;78.18;40.08;;;;;;;;;;5101681;28;20027;-78
2022/05/31 03:53:12;;;;;;;74.07;38.72;;;;;;;;;;5088728;28;20111;-79
2022/05/31 03:55:43;;;;;;;74.32;38.33;;;;;;;;;;5093020;28;20043;-83
2022/05/31 03:58:10;;;;;;;72.20;37.65;;;;;;;;;;5056093;28;20029;-79
2022/05/31 04:00:36;;;;;;;76.00;37.90;;;;;;;;;;5055480;28;20032;-79
2022/05/31 04:03:02;;;;;;;78.78;40.17;;;;;;;;;;5080797;28;20107;-81
2022/05/31 04:05:29;;;;;;;74.88;38.47;;;;;;;;;;5100230;28;20509;-78
2022/05/31 04:07:55;;;;;;;70.07;38.45;;;;;;;;;;5094662;28;20414;-79
2022/05/31 04:10:22;;;;;;;73.35;37.45;;;;;;;;;;5076222;28;20134;-80
2022/05/31 04:12:48;;;;;;;71.28;39.50;;;;;;;;;;5092862;28;20046;-81
2022/05/31 04:15:15;;;;;;;70.13;37.53;;;;;;;;;;5092352;28;20047;-80
2022/05/31 04:17:41;;;;;;;68.90;37.95;;;;;;;;;;5092387;28;20024;-80
2022/05/31 04:20:07;;;;;;;73.65;39.45;;;;;;;;;;5093289;28;20393;-82
2022/05/31 04:22:33;;;;;;;78.28;39.03;;;;;;;;;;5092259;28;20481;-79
2022/05/31 04:25:01;;;;;;;77.10;37.90;;;;;;;;;;5091903;28;20030;-81
2022/05/31 04:27:28;;;;;;;70.22;38.67;;;;;;;;;;5081189;28;20385;-78
2022/05/31 04:29:54;;;;;;;71.78;37.50;;;;;;;;;;5074628;28;20498;-80
2022/05/31 04:32:21;;;;;;;74.85;38.75;;;;;;;;;;5093239;28;20020;-78
2022/05/31 04:34:52;;;;;;;72.70;38.45;;;;;;;;;;5091509;28;20074;-77
2022/05/31 04:37:18;;;;;;;84.03;40.50;;;;;;;;;;5090392;28;20030;-79
2022/05/31 04:39:44;;;;;;;77.72;40.58;;;;;;;;;;5075076;28;20028;-79
2022/05/31 04:42:10;;;;;;;82.47;41.10;;;;;;;;;;5091908;28;20048;-77
2022/05/31 04:44:36;;;;;;;73.25;39.70;;;;;;;;;;5092956;28;20032;-80
2022/05/31 04:47:03;;;;;;;66.07;37.33;;;;;;;;;;5084604;28;20017;-76
2022/05/31 04:49:29;;;;;;;75.20;38.97;;;;;;;;;;5073481;28;20044;-78
2022/05/31 04:51:55;;;;;;;62.03;35.72;;;;;;;;;;5093082;28;20020;-79
2022/05/31 04:54:24;;;;;;;53.13;33.40;;;;;;;;;;5093249;28;20028;-78
2022/05/31 04:56:51;;;;;;;55.85;33.38;;;;;;;;;;5090897;28;20032;-78
2022/05/31 04:59:18;;;;;;;54.53;32.42;;;;;;;;;;5092274;28;20449;-81
2022/05/31 05:01:44;;;;;;;48.78;29.42;;;;;;;;;;5092934;28;20069;-78
2022/05/31 05:04:10;;;;;;;46.03;28.13;;;;;;;;;;5091904;28;20028;-79
2022/05/31 05:06:37;;;;;;;48.58;29.02;;;;;;;;;;5074678;28;20492;-79
2022/05/31 05:09:03;;;;;;;64.75;33.13;;;;;;;;;;5071215;28;20035;-79
2022/05/31 05:11:31;;;;;;;48.13;29.70;;;;;;;;;;5092625;28;20031;-77
2022/05/31 05:13:57;;;;;;;43.28;27.35;;;;;;;;;;5092230;28;20099;-79
2022/05/31 05:16:24;;;;;;;55.03;30.83;;;;;;;;;;5092742;28;20397;-80
2022/05/31 05:18:50;;;;;;;47.63;30.33;;;;;;;;;;5091617;28;20024;-78
2022/05/31 05:21:16;;;;;;;51.28;29.42;;;;;;;;;;5084945;28;20024;-79
2022/05/31 05:23:42;;;;;;;53.17;30.23;;;;;;;;;;5073154;28;20020;-79
2022/05/31 05:26:09;;;;;;;56.67;33.60;;;;;;;;;;5096522;28;20020;-77
2022/05/31 05:31:26;;;;;;;53.45;32.53;;;;;;;;;;5095386;28;20086;-80
2022/05/31 05:33:53;;;;;;;56.97;33.80;;;;;;;;;;5087982;28;20484;-79
2022/05/31 05:36:19;;;;;;;61.40;35.53;;;;;;;;;;5090484;28;20178;-79
2022/05/31 05:38:45;;;;;;;53.67;33.72;;;;;;;;;;5077197;28;20433;-78
2022/05/31 05:41:11;;;;;;;51.70;31.38;;;;;;;;;;5092581;28;20465;-81
2022/05/31 05:43:38;;;;;;;51.90;31.27;;;;;;;;;;5089935;28;20024;-78
2022/05/31 05:46:10;;;;;;;45.85;31.58;;;;;;;;;;5077345;28;20482;-80
2022/05/31 05:48:36;;;;;;;59.67;34.07;;;;;;;;;;5095132;28;20059;-78
2022/05/31 05:51:10;;;;;;;57.60;34.55;;;;;;;;;;5079962;28;20349;-80
2022/05/31 05:53:36;;;;;;;58.67;35.00;;;;;;;;;;5086455;28;20061;-76
2022/05/31 05:56:02;;;;;;;59.35;35.10;;;;;;;;;;5095471;28;20074;-75
2022/05/31 05:58:31;;;;;;;56.60;34.00;;;;;;;;;;5077430;28;20016;-76
2022/05/31 06:00:57;;;;;;;57.03;33.50;;;;;;;;;;5110880;28;20152;-76
2022/05/31 06:03:27;;;;;;;60.50;33.58;;;;;;;;;;5099179;28;20027;-77
2022/05/31 06:05:53;;;;;;;49.45;33.63;;;;;;;;;;5095689;28;20059;-78
2022/05/31 06:08:22;;;;;;;49.88;32.75;;;;;;;;;;5075712;28;20028;-78
2022/05/31 06:11:04;;;;;;;47.95;32.75;;;;;;;;;;5073365;28;20063;-77
2022/05/31 06:13:33;;;;;;;46.17;32.60;;;;;;;;;;5094442;28;20028;-76
2022/05/31 06:16:00;;;;;;;49.78;32.10;;;;;;;;;;5078518;28;20036;-79
2022/05/31 06:18:29;;;;;;;52.95;32.50;;;;;;;;;;5082598;28;20059;-78
2022/05/31 06:20:59;;;;;;;57.33;33.95;;;;;;;;;;5065530;28;20063;-78
2022/05/31 06:23:25;;;;;;;53.13;33.50;;;;;;;;;;5092375;28;20111;-83
2022/05/31 06:25:51;;;;;;;51.30;33.38;;;;;;;;;;5070940;28;20020;-85
2022/05/31 06:28:17;;;;;;;54.42;34.78;;;;;;;;;;5066663;28;20029;-74
2022/05/31 06:30:44;;;;;;;58.83;34.50;;;;;;;;;;5087684;28;20108;-74
2022/05/31 06:33:10;;;;;;;63.10;37.55;;;;;;;;;;5068511;28;20052;-85
2022/05/31 06:35:37;;;;;;;64.30;37.92;;;;;;;;;;5086317;28;20560;-83
2022/05/31 06:38:03;;;;;;;61.88;37.17;;;;;;;;;;5077068;28;20028;-84
2022/05/31 06:40:29;;;;;;;63.33;39.15;;;;;;;;;;5072354;28;20107;-79
2022/05/31 06:42:58;;;;;;;1016.15;561.42;;;;;;;;;;5093103;28;20052;-82
2022/05/31 06:45:24;;;;;;;72.80;41.85;;;;;;;;;;5089395;28;20020;-76
2022/05/31 06:47:51;;;;;;;71.57;42.03;;;;;;;;;;5083022;28;20086;-80
2022/05/31 06:50:19;;;;;;;63.63;40.47;;;;;;;;;;5085698;28;20032;-81
2022/05/31 06:58:16;;;;;;;70.72;43.53;;;;;;;;;;5087788;28;20084;-79
2022/05/31 07:00:42;;;;;;;68.68;42.45;;;;;;;;;;5062041;28;20024;-81
2022/05/31 07:03:09;;;;;;;63.63;41.13;;;;;;;;;;5085968;28;20024;-76
2022/05/31 07:05:35;;;;;;;67.38;40.80;;;;;;;;;;5084103;28;20094;-75
2022/05/31 07:08:01;;;;;;;67.57;40.85;;;;;;;;;;5084397;28;20066;-77
2022/05/31 07:10:27;;;;;;;63.67;41.95;;;;;;;;;;5084667;28;20032;-79
2022/05/31 07:12:53;;;;;;;67.70;41.65;;;;;;;;;;5065781;28;20032;-79
2022/05/31 07:15:19;;;;;;;68.43;42.97;;;;;;;;;;5063577;28;20028;-81
2022/05/31 07:17:46;;;;;;;66.90;42.58;;;;;;;;;;5087684;28;20026;-82
2022/05/31 07:20:13;;;;;;;74.75;48.50;;;;;;;;;;5068778;28;20033;-81
2022/05/31 07:22:39;;;;;;;66.72;43.22;;;;;;;;;;5064488;28;20408;-80
2022/05/31 07:25:06;;;;;;;67.05;42.38;;;;;;;;;;5071822;28;20410;-84
2022/05/31 07:27:33;;;;;;;66.30;41.85;;;;;;;;;;5061729;28;20024;-90
2022/05/31 07:29:59;;;;;;;74.05;43.42;;;;;;;;;;5092288;28;20024;-78
2022/05/31 07:32:25;;;;;;;66.95;42.30;;;;;;;;;;5086691;28;20115;-82
2022/05/31 07:34:51;;;;;;;66.78;42.10;;;;;;;;;;5079354;28;20029;-81
2022/05/31 07:37:20;;;;;;;67.43;42.38;;;;;;;;;;5067955;28;20108;-81
2022/05/31 07:39:48;;;;;;;63.28;40.88;;;;;;;;;;5065014;28;20036;-79
2022/05/31 07:42:14;;;;;;;66.80;42.83;;;;;;;;;;5070343;28;20036;-84
2022/05/31 07:44:40;;;;;;;59.85;40.97;;;;;;;;;;5106125;28;20028;-78
2022/05/31 07:47:07;;;;;;;61.70;39.92;;;;;;;;;;5082766;28;20111;-82
2022/05/31 07:49:33;;;;;;;66.85;42.70;;;;;;;;;;5087679;28;20077;-82
2022/05/31 07:51:59;;;;;;;67.50;40.75;;;;;;;;;;5070622;28;20036;-81
2022/05/31 07:54:25;;;;;;;59.80;40.65;;;;;;;;;;5072551;28;20044;-78
2022/05/31 07:56:51;;;;;;;58.50;40.25;;;;;;;;;;5077088;28;20020;-82
2022/05/31 07:59:20;;;;;;;57.60;38.08;;;;;;;;;;5070064;28;20030;-81
2022/05/31 08:01:46;;;;;;;57.35;37.63;;;;;;;;;;5094864;28;20151;-74
2022/05/31 08:04:13;;;;;;;47.83;35.25;;;;;;;;;;5080106;28;20032;-75
2022/05/31 08:06:42;;;;;;;46.78;34.97;;;;;;;;;;5091922;28;20056;-82
2022/05/31 08:09:08;;;;;;;52.92;36.90;;;;;;;;;;5073548;28;20028;-83
2022/05/31 08:11:35;;;;;;;50.22;35.05;;;;;;;;;;5086386;28;20377;-78
2022/05/31 08:14:03;;;;;;;54.65;37.50;;;;;;;;;;5070742;28;20028;-80
2022/05/31 08:16:30;;;;;;;54.83;38.10;;;;;;;;;;5073980;28;20066;-78
2022/05/31 08:18:57;;;;;;;51.65;36.42;;;;;;;;;;5091261;28;20016;-78
2022/05/31 08:21:27;;;;;;;51.72;35.42;;;;;;;;;;5090430;28;20389;-77
2022/05/31 08:23:59;;;;;;;55.90;39.40;;;;;;;;;;5091522;28;20024;-81
2022/05/31 08:26:26;;;;;;;63.25;41.72;;;;;;;;;;5077979;28;20036;-82
2022/05/31 08:28:52;;;;;;;63.97;42.20;;;;;;;;;;5078781;28;20037;-79
2022/05/31 08:31:22;;;;;;;59.10;40.47;;;;;;;;;;5086076;28;20115;-79
2022/05/31 08:33:48;;;;;;;65.28;42.15;;;;;;;;;;5085345;28;20028;-80
2022/05/31 08:36:14;;;;;;;71.78;44.50;;;;;;;;;;5059612;28;20070;-85
2022/05/31 08:38:40;;;;;;;71.38;45.30;;;;;;;;;;5078270;28;20020;-87
2022/05/31 08:41:16;;;;;;;68.43;44.03;;;;;;;;;;5062393;28;20036;-80
2022/05/31 08:43:50;;;;;;;64.43;41.63;;;;;;;;;;5083972;28;20027;-79
2022/05/31 08:46:16;;;;;;;64.47;44.70;;;;;;;;;;5074608;28;20036;-73
2022/05/31 08:48:48;;;;;;;67.03;44.00;;;;;;;;;;5077263;28;20029;-75
2022/05/31 08:56:59;;;;;;;69.78;44.83;;;;;;;;;;5091892;28;20023;-88
2022/05/31 08:59:40;;;;;;;71.43;46.97;;;;;;;;;;5081559;28;20036;-88
2022/05/31 09:02:12;;;;;;;78.63;47.90;;;;;;;;;;5087069;28;20126;-87
2022/05/31 09:04:43;;;;;;;71.78;45.30;;;;;;;;;;5070582;28;20111;-89
2022/05/31 09:07:13;;;;;;;71.03;45.58;;;;;;;;;;5079897;28;20032;-89
2022/05/31 09:09:40;;;;;;;74.22;46.35;;;;;;;;;;5101374;28;20043;-86
2022/05/31 09:12:12;;;;;;;65.65;43.88;;;;;;;;;;5069307;28;20024;-84
2022/05/31 09:14:51;;;;;;;69.70;45.00;;;;;;;;;;5071571;28;20020;-84
2022/05/31 09:17:25;;;;;;;67.05;46.00;;;;;;;;;;5083633;28;20036;-85
2022/05/31 09:19:58;;;;;;;72.25;46.20;;;;;;;;;;5074425;28;20028;-90
2022/05/31 09:22:24;;;;;;;69.05;44.83;;;;;;;;;;5087200;28;20086;-85
2022/05/31 09:24:50;;;;;;;59.75;43.05;;;;;;;;;;5093064;28;20058;-85
2022/05/31 09:27:39;;;;;;;60.65;40.70;;;;;;;;;;5098988;28;20028;-85
2022/05/31 09:30:09;;;;;;;60.97;42.83;;;;;;;;;;5015470;28;20780;-85
2022/05/31 09:32:38;;;;;;;63.97;43.58;;;;;;;;;;4999224;28;20042;-85
2022/05/31 09:35:15;;;;;;;63.63;43.25;;;;;;;;;;4998684;28;20034;-84
2022/05/31 09:37:54;;;;;;;63.13;43.75;;;;;;;;;;5014595;28;20049;-84
2022/05/31 09:40:41;;;;;;;64.20;44.15;;;;;;;;;;4994557;28;20500;-88
2022/05/31 09:43:10;;;;;;;61.40;43.80;;;;;;;;;;4992400;28;20081;-87
2022/05/31 09:45:40;;;;;;;65.28;43.58;;;;;;;;;;5013239;28;20046;-82
2022/05/31 09:48:06;;;;;;;60.22;42.75;;;;;;;;;;5007292;28;20038;-79
2022/05/31 09:50:32;;;;;;;59.63;42.28;;;;;;;;;;5022701;28;20495;-85
2022/05/31 09:52:59;;;;;;;61.15;43.75;;;;;;;;;;5009753;28;20029;-86
2022/05/31 09:58:27;;;;;;;61.97;42.70;;;;;;;;;;5012191;28;20036;-82
2022/05/31 10:01:04;;;;;;;64.90;44.90;;;;;;;;;;5013232;28;20117;-85
2022/05/31 10:03:33;;;;;;;63.13;43.30;;;;;;;;;;5004039;28;20193;-81
2022/05/31 10:06:06;;;;;;;54.17;41.35;;;;;;;;;;4993779;28;20046;-75
2022/05/31 10:08:33;;;;;;;53.95;41.40;;;;;;;;;;5080372;28;20070;-82
2022/05/31 10:11:04;;;;;;;53.90;41.30;;;;;;;;;;5093184;28;20036;-83
2022/05/31 10:13:35;;;;;;;53.80;40.05;;;;;;;;;;5091440;28;20032;-90
2022/05/31 10:16:12;;;;;;;50.88;39.58;;;;;;;;;;5084991;28;20025;-82
2022/05/31 10:19:04;;;;;;;51.00;39.25;;;;;;;;;;5070119;28;20032;-81
2022/05/31 10:21:31;;;;;;;61.70;48.70;;;;;;;;;;5069277;28;20036;-85
2022/05/31 10:24:00;;;;;;;64.30;44.88;;;;;;;;;;5073281;28;20023;-81
2022/05/31 10:26:32;;;;;;;57.08;43.78;;;;;;;;;;5086172;28;20040;-79
2022/05/31 10:29:03;;;;;;;56.35;42.95;;;;;;;;;;5083910;28;20020;-82
2022/05/31 10:31:43;;;;;;;55.60;41.90;;;;;;;;;;5072008;28;20024;-80
2022/05/31 10:34:28;;;;;;;57.63;43.30;;;;;;;;;;5074127;28;20031;-76
2022/05/31 10:36:56;;;;;;;54.88;43.25;;;;;;;;;;5075675;28;20041;-84
2022/05/31 10:39:24;;;;;;;55.45;43.47;;;;;;;;;;5084817;28;20047;-81
2022/05/31 10:41:52;;;;;;;56.38;44.65;;;;;;;;;;5071976;28;20035;-83
2022/05/31 10:44:24;;;;;;;57.80;43.10;;;;;;;;;;5077494;28;20041;-84
2022/05/31 10:46:52;;;;;;;49.25;39.63;;;;;;;;;;5093512;28;20027;-85
2022/05/31 10:49:19;;;;;;;57.08;42.10;;;;;;;;;;5077405;28;20358;-85
2022/05/31 10:52:04;;;;;;;51.60;41.95;;;;;;;;;;5077284;28;20088;-83
2022/05/31 10:54:49;;;;;;;52.13;40.80;;;;;;;;;;5077289;28;20123;-85
2022/05/31 10:57:21;;;;;;;54.15;41.22;;;;;;;;;;5075502;28;20035;-84
2022/05/31 10:59:52;;;;;;;54.15;41.80;;;;;;;;;;5073012;28;20123;-84
2022/05/31 11:02:31;;;;;;;48.25;40.30;;;;;;;;;;5094997;28;20020;-84
2022/05/31 11:05:01;;;;;;;50.30;40.85;;;;;;;;;;5076379;28;20062;-84
2022/05/31 11:13:39;;;;;;;55.72;43.17;;;;;;;;;;5095051;28;20109;-83
2022/05/31 11:16:19;;;;;;;50.72;39.90;;;;;;;;;;5076553;28;20034;-84
2022/05/31 11:18:57;;;;;;;52.20;39.40;;;;;;;;;;5087826;28;20093;-84
2022/05/31 11:21:31;;;;;;;47.13;38.85;;;;;;;;;;5074466;28;20036;-83
2022/05/31 11:24:11;;;;;;;50.38;39.78;;;;;;;;;;5089729;28;20024;-83
2022/05/31 11:26:48;;;;;;;54.10;40.83;;;;;;;;;;5077907;28;20221;-82
2022/05/31 11:29:33;;;;;;;49.05;39.95;;;;;;;;;;5097797;28;20028;-83
2022/05/31 11:32:05;;;;;;;52.35;41.22;;;;;;;;;;5094020;28;20035;-83
2022/05/31 11:34:51;;;;;;;55.70;43.83;;;;;;;;;;5092876;28;20032;-83
2022/05/31 11:37:32;;;;;;;51.75;42.03;;;;;;;;;;5094261;28;20038;-83
2022/05/31 11:40:11;;;;;;;55.83;44.13;;;;;;;;;;5075576;28;20454;-84
2022/05/31 11:42:56;;;;;;;51.22;41.90;;;;;;;;;;5075865;28;20023;-85
2022/05/31 11:45:45;;;;;;;51.97;41.78;;;;;;;;;;5093712;28;20028;-83
2022/05/31 11:48:30;;;;;;;48.47;40.78;;;;;;;;;;4992065;28;20049;-83
2022/05/31 11:51:25;;;;;;;52.15;42.75;;;;;;;;;;4981758;28;20081;-81
2022/05/31 11:54:00;;;;;;;52.22;42.90;;;;;;;;;;4952767;29;20062;-77
2022/05/31 11:56:29;;;;;;;54.20;43.60;;;;;;;;;;4942254;29;20067;-78
2022/05/31 11:58:55;;;;;;;44.22;38.90;;;;;;;;;;4950752;29;20043;-74
2022/05/31 12:01:42;;;;;;;46.38;38.78;;;;;;;;;;4950601;28;20023;-76
2022/05/31 12:04:11;;;;;;;47.28;39.90;;;;;;;;;;4942797;28;20045;-74
2022/05/31 12:06:45;;;;;;;52.17;42.70;;;;;;;;;;4952885;29;20047;-79
2022/05/31 12:09:17;;;;;;;51.38;41.47;;;;;;;;;;4934551;29;20047;-78
2022/05/31 12:11:46;;;;;;;50.60;42.47;;;;;;;;;;4948905;28;20103;-86
2022/05/31 12:14:13;;;;;;;50.20;42.20;;;;;;;;;;4951239;28;20027;-79
2022/05/31 12:16:40;;;;;;;50.25;41.97;;;;;;;;;;4950886;28;20098;-76
2022/05/31 12:19:18;;;;;;;49.88;42.63;;;;;;;;;;4949547;28;20043;-76
2022/05/31 12:21:48;;;;;;;52.03;43.42;;;;;;;;;;4950763;28;20031;-77
2022/05/31 12:24:18;;;;;;;53.70;43.88;;;;;;;;;;4954549;28;20441;-79
2022/05/31 12:26:50;;;;;;;51.08;42.92;;;;;;;;;;5023642;28;20036;-76
2022/05/31 12:29:23;;;;;;;57.10;43.95;;;;;;;;;;5017763;28;20033;-77
2022/05/31 12:31:50;;;;;;;54.72;42.47;;;;;;;;;;5087829;28;20028;-79
2022/05/31 12:34:19;;;;;;;48.85;41.85;;;;;;;;;;5084890;28;20443;-80
2022/05/31 12:37:04;;;;;;;51.72;41.50;;;;;;;;;;5077764;28;20056;-83
2022/05/31 12:39:33;;;;;;;51.20;42.90;;;;;;;;;;5087289;28;20020;-81
2022/05/31 12:42:04;;;;;;;49.20;43.60;;;;;;;;;;5089998;28;20580;-83
2022/05/31 12:44:35;;;;;;;50.13;42.83;;;;;;;;;;5086466;28;20085;-79
2022/05/31 12:47:18;;;;;;;46.35;41.35;;;;;;;;;;5082993;28;20025;-83
2022/05/31 12:50:14;;;;;;;50.22;41.83;;;;;;;;;;5085932;28;20039;-84
2022/05/31 12:53:21;;;;;;;49.45;41.35;;;;;;;;;;4993171;28;20038;-81
2022/05/31 12:55:47;;;;;;;47.20;41.20;;;;;;;;;;4925691;29;20032;-82
2022/05/31 12:58:29;;;;;;;44.65;39.17;;;;;;;;;;4934899;29;20039;-74
2022/05/31 13:01:19;;;;;;;47.88;41.67;;;;;;;;;;4911085;29;20541;-73
2022/05/31 13:03:51;;;;;;;45.80;39.88;;;;;;;;;;4909848;29;20562;-76
2022/05/31 13:06:18;;;;;;;45.30;38.78;;;;;;;;;;4919020;29;20044;-76
2022/05/31 13:08:52;;;;;;;47.78;40.30;;;;;;;;;;4931826;29;20109;-78
2022/05/31 13:20:00;;;;;;;43.88;38.35;;;;;;;;;;4924437;29;20078;-84
2022/05/31 13:22:26;;;;;;;45.58;39.22;;;;;;;;;;4926730;29;20184;-86
2022/05/31 13:25:02;;;;;;;41.53;36.97;;;;;;;;;;4925576;29;20427;-76
2022/05/31 13:27:30;;;;;;;45.60;39.83;;;;;;;;;;4921908;29;20164;-78
2022/05/31 13:30:05;;;;;;;50.40;42.35;;;;;;;;;;5029764;28;20092;-77
2022/05/31 13:32:32;;;;;;;46.17;38.90;;;;;;;;;;5080950;28;20108;-78
2022/05/31 13:34:58;;;;;;;44.65;39.78;;;;;;;;;;5083850;28;20028;-76
2022/05/31 13:37:24;;;;;;;41.22;36.88;;;;;;;;;;5081452;28;20111;-81
2022/05/31 13:39:51;;;;;;;43.70;37.88;;;;;;;;;;5087247;28;20028;-76
2022/05/31 13:42:21;;;;;;;45.72;40.72;;;;;;;;;;5086889;28;20029;-75
2022/05/31 13:44:47;;;;;;;41.63;36.70;;;;;;;;;;5086396;28;20537;-77
2022/05/31 13:47:16;;;;;;;42.78;38.03;;;;;;;;;;5097626;28;20172;-78
2022/05/31 13:49:43;;;;;;;42.63;37.38;;;;;;;;;;5073041;28;20028;-77
2022/05/31 13:52:23;;;;;;;46.85;40.83;;;;;;;;;;5087091;28;20099;-80
2022/05/31 13:54:49;;;;;;;44.25;39.42;;;;;;;;;;5089831;28;20031;-84
2022/05/31 13:57:17;;;;;;;46.53;37.58;;;;;;;;;;5091414;28;20461;-80
2022/05/31 13:59:54;;;;;;;44.25;38.08;;;;;;;;;;5092597;28;20047;-80
2022/05/31 14:02:21;;;;;;;42.53;38.10;;;;;;;;;;5067960;28;20111;-77
2022/05/31 14:04:58;;;;;;;47.10;40.17;;;;;;;;;;5089658;28;20393;-78
2022/05/31 14:07:28;;;;;;;48.40;43.13;;;;;;;;;;5064562;28;20032;-79
2022/05/31 14:09:55;;;;;;;49.03;42.67;;;;;;;;;;5074592;28;20032;-79
2022/05/31 14:12:26;;;;;;;52.13;45.50;;;;;;;;;;5073478;28;20032;-82
2022/05/31 14:14:53;;;;;;;47.85;42.63;;;;;;;;;;5077205;28;20054;-76
2022/05/31 14:17:34;;;;;;;50.95;43.50;;;;;;;;;;5097617;28;20020;-82
2022/05/31 14:20:00;;;;;;;47.75;41.78;;;;;;;;;;5074296;28;20481;-77
2022/05/31 14:22:27;;;;;;;46.15;40.05;;;;;;;;;;5085564;28;20050;-79
2022/05/31 14:24:55;;;;;;;48.88;42.28;;;;;;;;;;5069169;28;20028;-80
2022/05/31 14:27:22;;;;;;;48.97;40.92;;;;;;;;;;5072380;28;20024;-80
2022/05/31 14:30:03;;;;;;;47.53;42.42;;;;;;;;;;5096657;28;20103;-78
2022/05/31 14:32:30;;;;;;;51.38;45.78;;;;;;;;;;5091839;28;20027;-77
2022/05/31 14:34:56;;;;;;;49.50;44.08;;;;;;;;;;5099595;28;20036;-76
2022/05/31 14:37:53;;;;;;;51.22;45.67;;;;;;;;;;5096666;28;20035;-79
2022/05/31 14:40:30;;;;;;;49.70;43.55;;;;;;;;;;4984179;28;20045;-79
2022/05/31 14:42:58;;;;;;;48.03;42.85;;;;;;;;;;4996244;28;20419;-79
2022/05/31 14:45:29;;;;;;;47.38;41.40;;;;;;;;;;4981251;28;20039;-80
2022/05/31 14:47:55;;;;;;;46.40;40.90;;;;;;;;;;5005740;28;20034;-80
2022/05/31 14:50:26;;;;;;;47.95;42.55;;;;;;;;;;4970671;28;20046;-87
2022/05/31 14:52:54;;;;;;;49.80;43.58;;;;;;;;;;4985009;28;20034;-82
2022/05/31 14:55:20;;;;;;;47.20;41.15;;;;;;;;;;5001069;28;20113;-81
2022/05/31 15:00:40;;;;;;;52.75;44.45;;;;;;;;;;4992158;28;20057;-86
2022/05/31 15:03:14;;;;;;;68.43;48.90;;;;;;;;;;5002599;28;20042;-79
2022/05/31 15:05:40;;;;;;;53.30;46.15;;;;;;;;;;4982926;28;20026;-82